Aérodrome :
LOGIN :

S'inscrire | Disclaimer

   EN    FR    IT 

 










Légende :    VFR   VFR Marginal   IFR   IFR Intensif   IFR Très Intensif
Visi : 
Plafond : 
>= 8 km
>= 3000ft
5 à 8 km
1000 à 3000 ft
1500m à 5 km
500 à 1000 ft
800 à 1500m
200 à 500 ft
< 800m
< 200 ft
Symboles :   Orages  Brouillard  Fortes neiges  Fortes précipitations  Vent > 20 kt
SIGMETs :   Divers  Orages  Givrage  Turbulence  Onde Orograph.  Cendres Volcan.






- Altitude de l'aérodrome : 7 ft
- Code IATA : XHE


LFTH - Hyeres

DERNIER METAR :
  • 192330Z AUTO 30008KT 270V330 CAVOK 14/03 Q1012 TEMPO 31015G25KT

METARs EXPIRÉS :
  • 192300Z AUTO 28010KT CAVOK 16/02 Q1012 TEMPO 31015G25KT
  • 192230Z AUTO 28011KT CAVOK 15/03 Q1013 TEMPO 31015G25KT
  • 192200Z AUTO 28016KT CAVOK 16/02 Q1013 TEMPO 31015G25KT
  • 192130Z AUTO 28015KT CAVOK 15/03 Q1013 TEMPO 31015G25KT
  • 192100Z AUTO 28015KT CAVOK 15/04 Q1013 TEMPO 31015G25KT
  • 192030Z AUTO 27020KT CAVOK 16/03 Q1013 TEMPO 31015G25KT
  • 192000Z AUTO 26017G28KT CAVOK 16/04 Q1013 NOSIG
  • 191930Z AUTO 26021KT CAVOK 16/04 Q1013 BECMG 28015G25KT
  • 191900Z AUTO 26021KT CAVOK 17/03 Q1013 BECMG 28015G25KT

TAF TAF LFTH
Valide du 19 à 21h jusqu'au 20 à 21h UTC


192000Z 1921/2021 31012KT CAVOK
TEMPO 1921/2012 31015G25KT
BECMG 2013/2015 10012KT
BECMG 2017/2019 35008KT



MET'MAP, la Météo Aéronautique d'un coup d'oeil ! - Copyright ORBIFLY Décembre 2007 - Disclaimer

ORBIFLY MET'MAP TEAM :

Programmation & Développement : Alexandra Zaïnal
Sur une idée originale de : Baudouin d'Aumeries
Soutien technique & logistique : Manuel Goepfert
Assistance : Marc-Olivier Méhu




SOURCES & CREDITS :

   NOAA